Accueil
METAR-TAF:

METAR-TAF

Aéroports :

Aéroport de Brač

Brač, Croatie

latitude: 43-17-09N, longitude: 016-40-47E, altitude: 541 m

Observation

Le bulletin a été fait il y a 11 heures et 5 minutes, à 14:00 UTC
Vent 9 kt de sud, variant entre sud-est et sud/sud-ouest
Température 28°C
Humidité 30%
Pression 1016 hPa
Visibilité 10 km ou plus
pas de nuages en-dessous de 1500 mètres et pas de cumulonimbus.

METAR: LDSB 031400Z 17009KT 140V200 CAVOK 28/09 Q1016

Heure: 03:05 (01:05 UTC)

Prévision

Le bulletin a été fait il y a 13 heures et 40 minutes, à 11:25 UTC
Prévision valable du 03 à 12 UTC au 04 à 12 UTC
Vent 7 kt de sud/sud-ouest
Visibilité 10 km ou plus
pas de nuages en-dessous de 1500 mètres et pas de cumulonimbus.
Evoluant progressivement
du 03 à 16 UTC au 03 à 18 UTC
Vent 4 kt de est

TAF: LDSB 031125Z 0312/0412 21007KT CAVOK TX29/0314Z TN20/0404Z BECMG 0316/0318 10004KT

Observations et prévisions météorologiques de plus de 4000 aéroports (messages METAR et TAF).

Les stations disponibles sont représentées par des disques jaunes et rouges sur la carte.

Passer la souris dessus pour voir le nom de la station.

Cliquer dessus pour voir les observations et prévisions météorologiques.

Pour changer de carte: cliquez sur les boutons verts avec une croix noire pour zoomer, sur le bouton vert avec un tiret pour effectuer un zoom arrière, ou sur les flèches vertes pour les cartes adjacentes.


METAR-TAF: